createdAt,value
2018-08-04T00:00:23.397Z,99.90
2018-08-04T00:02:52.689Z,99.90
2018-08-04T00:05:21.855Z,99.90
2018-08-04T00:07:51.157Z,99.90
2018-08-04T00:10:21.560Z,99.90
2018-08-04T00:12:51.859Z,99.90
2018-08-04T00:15:21.520Z,99.90
2018-08-04T00:17:50.936Z,99.90
2018-08-04T00:20:20.152Z,99.90
2018-08-04T00:22:49.338Z,99.90
2018-08-04T00:25:18.649Z,99.90
2018-08-04T00:27:47.832Z,99.90
2018-08-04T00:30:17.335Z,99.90
2018-08-04T00:32:46.494Z,99.90
2018-08-04T00:35:16.477Z,99.90
2018-08-04T00:37:45.648Z,99.90
2018-08-04T00:40:14.945Z,99.90
2018-08-04T00:42:44.160Z,99.90
2018-08-04T00:47:42.314Z,99.90
2018-08-04T00:50:11.512Z,99.90
2018-08-04T00:52:40.957Z,99.90
2018-08-04T00:55:10.282Z,99.90
2018-08-04T00:57:39.415Z,99.90
2018-08-04T01:00:08.711Z,99.90
2018-08-04T01:02:37.812Z,99.90
2018-08-04T01:05:07.310Z,99.90
2018-08-04T01:07:36.627Z,99.90
2018-08-04T01:12:34.920Z,99.90
2018-08-04T01:15:04.719Z,99.90
2018-08-04T01:17:33.835Z,99.90
2018-08-04T01:20:04.284Z,99.90
2018-08-04T01:22:34.935Z,99.90
2018-08-04T01:25:05.108Z,99.90
2018-08-04T01:27:34.591Z,99.90
2018-08-04T01:30:04.796Z,99.90
2018-08-04T01:32:34.175Z,99.90
2018-08-04T01:37:32.193Z,99.90
2018-08-04T01:40:01.309Z,99.90
2018-08-04T01:42:30.609Z,99.90
2018-08-04T01:44:59.799Z,99.90
2018-08-04T01:47:29.024Z,99.90
2018-08-04T01:49:58.868Z,99.90
2018-08-04T01:52:28.045Z,99.90
2018-08-04T01:54:57.151Z,99.90
2018-08-04T01:57:26.453Z,99.90
2018-08-04T01:59:55.612Z,99.90
2018-08-04T02:02:24.927Z,99.90
2018-08-04T02:04:54.361Z,99.90
2018-08-04T02:07:23.643Z,99.90
2018-08-04T02:09:53.135Z,99.90
2018-08-04T02:12:22.328Z,99.90
2018-08-04T02:14:51.565Z,99.90
2018-08-04T02:17:20.732Z,99.90
2018-08-04T02:19:50.053Z,99.90
2018-08-04T02:24:48.140Z,99.90
2018-08-04T02:27:17.477Z,99.90
2018-08-04T02:29:46.754Z,99.90
2018-08-04T02:32:15.928Z,99.90
2018-08-04T02:34:45.136Z,99.90
2018-08-04T02:37:14.364Z,99.90
2018-08-04T02:39:50.113Z,99.90
2018-08-04T02:42:19.525Z,99.90
2018-08-04T02:44:49.030Z,99.90
2018-08-04T02:47:18.644Z,99.90
2018-08-04T02:49:47.747Z,99.90
2018-08-04T02:52:17.015Z,99.90
2018-08-04T02:54:46.313Z,99.90
2018-08-04T02:57:15.492Z,99.90
2018-08-04T02:59:44.685Z,99.90
2018-08-04T03:02:13.918Z,99.90
2018-08-04T03:04:43.127Z,99.90
2018-08-04T03:07:12.396Z,99.90
2018-08-04T03:09:41.601Z,99.90
2018-08-04T03:12:10.914Z,99.90
2018-08-04T03:14:40.295Z,99.90
2018-08-04T03:17:09.626Z,99.90
2018-08-04T03:19:38.827Z,99.90
2018-08-04T03:22:08.034Z,99.90
2018-08-04T03:24:37.236Z,99.90
2018-08-04T03:27:06.673Z,99.90
2018-08-04T03:29:36.023Z,99.90
2018-08-04T03:34:34.023Z,99.90
2018-08-04T03:37:04.032Z,99.90
2018-08-04T03:39:33.196Z,99.90
2018-08-04T03:42:02.512Z,99.90
2018-08-04T03:44:31.845Z,99.90
2018-08-04T03:47:01.015Z,99.90
2018-08-04T03:49:30.249Z,99.90
2018-08-04T03:51:59.394Z,99.90
2018-08-04T03:54:28.617Z,99.90
2018-08-04T03:56:57.821Z,99.90
2018-08-04T03:59:26.997Z,99.90
2018-08-04T04:01:56.285Z,99.90
2018-08-04T04:04:25.579Z,99.90
2018-08-04T04:06:54.821Z,99.90
2018-08-04T04:09:23.999Z,99.90
2018-08-04T04:11:53.408Z,99.90
2018-08-04T04:14:22.525Z,99.90
2018-08-04T04:16:51.936Z,99.90
2018-08-04T04:19:21.119Z,99.90
2018-08-04T04:21:50.522Z,99.90
2018-08-04T04:24:19.922Z,99.90
2018-08-04T04:26:49.125Z,99.90
2018-08-04T04:29:18.359Z,99.90
2018-08-04T04:31:47.513Z,99.90
2018-08-04T04:34:17.080Z,99.90
2018-08-04T04:36:46.374Z,99.90
2018-08-04T04:39:15.552Z,99.90
2018-08-04T04:41:44.945Z,99.90
2018-08-04T04:44:14.124Z,99.90
2018-08-04T04:46:43.336Z,99.90
2018-08-04T04:49:13.299Z,99.90
2018-08-04T04:51:43.528Z,99.90
2018-08-04T04:54:12.904Z,99.90
2018-08-04T04:56:42.192Z,99.90
2018-08-04T04:59:11.377Z,99.90
2018-08-04T05:01:40.580Z,99.90
2018-08-04T05:04:09.826Z,99.90
2018-08-04T05:06:38.998Z,99.90
2018-08-04T05:09:09.204Z,99.90
2018-08-04T05:11:38.444Z,99.90
2018-08-04T05:14:09.448Z,99.90
2018-08-04T05:16:39.144Z,99.90
2018-08-04T05:19:08.421Z,99.90
2018-08-04T05:21:37.587Z,99.90
2018-08-04T05:24:06.770Z,99.90
2018-08-04T05:26:35.902Z,99.90
2018-08-04T05:29:05.124Z,99.90
2018-08-04T05:31:34.402Z,99.90
2018-08-04T05:34:03.578Z,99.90
2018-08-04T05:36:32.793Z,99.90
2018-08-04T05:39:02.149Z,99.90
2018-08-04T05:41:31.374Z,99.90
2018-08-04T05:44:00.452Z,99.90
2018-08-04T05:46:29.770Z,99.90
2018-08-04T05:48:59.013Z,99.90
2018-08-04T05:51:28.560Z,99.90
2018-08-04T05:53:57.738Z,99.90
2018-08-04T05:56:26.884Z,99.90
2018-08-04T05:58:56.128Z,99.90
2018-08-04T06:01:25.700Z,99.60
2018-08-04T06:03:55.050Z,99.40
2018-08-04T06:06:24.362Z,99.10
2018-08-04T06:08:53.556Z,98.70
2018-08-04T06:11:22.732Z,98.00
2018-08-04T06:13:52.247Z,98.20
2018-08-04T06:16:21.424Z,98.30
2018-08-04T06:18:51.072Z,97.80
2018-08-04T06:21:20.231Z,97.50
2018-08-04T06:23:49.555Z,97.70
2018-08-04T06:26:18.892Z,98.00
2018-08-04T06:28:48.052Z,97.70
2018-08-04T06:31:17.591Z,98.60
2018-08-04T06:33:46.779Z,97.70
2018-08-04T06:36:15.953Z,97.60
2018-08-04T06:38:45.161Z,98.30
2018-08-04T06:41:14.299Z,97.30
2018-08-04T06:43:43.597Z,97.20
2018-08-04T06:46:12.860Z,97.00
2018-08-04T06:48:42.056Z,96.90
2018-08-04T06:51:11.276Z,97.70
2018-08-04T06:53:40.555Z,96.80
2018-08-04T06:56:09.781Z,96.70
2018-08-04T06:58:38.937Z,96.10
2018-08-04T07:01:08.140Z,94.90
2018-08-04T07:03:37.320Z,96.10
2018-08-04T07:06:06.650Z,95.90
2018-08-04T07:08:36.042Z,94.50
2018-08-04T07:11:05.476Z,94.70
2018-08-04T07:13:34.885Z,95.00
2018-08-04T07:16:04.466Z,95.60
2018-08-04T07:18:33.578Z,94.50
2018-08-04T07:21:02.997Z,95.20
2018-08-04T07:23:32.298Z,94.50
2018-08-04T07:26:01.635Z,95.20
2018-08-04T07:28:30.869Z,93.90
2018-08-04T07:31:00.090Z,93.80
2018-08-04T07:33:29.245Z,93.10
2018-08-04T07:35:58.602Z,92.40
2018-08-04T07:38:27.753Z,91.60
2018-08-04T07:40:56.994Z,91.40
2018-08-04T07:43:26.265Z,91.70
2018-08-04T07:48:24.231Z,90.30
2018-08-04T07:50:53.495Z,90.20
2018-08-04T07:53:22.835Z,90.70
2018-08-04T07:55:52.040Z,89.20
2018-08-04T07:58:21.344Z,90.40
2018-08-04T08:00:50.532Z,90.50
2018-08-04T08:03:19.887Z,93.50
2018-08-04T08:05:49.151Z,93.20
2018-08-04T08:08:18.425Z,92.70
2018-08-04T08:10:47.638Z,92.00
2018-08-04T08:13:16.894Z,91.30
2018-08-04T08:15:46.075Z,91.20
2018-08-04T08:18:15.294Z,89.20
2018-08-04T08:20:44.759Z,87.50
2018-08-04T08:23:14.171Z,90.50
2018-08-04T08:25:53.327Z,92.00
2018-08-04T08:28:22.577Z,90.50
2018-08-04T08:30:51.813Z,90.00
2018-08-04T08:33:21.107Z,89.40
2018-08-04T08:35:50.327Z,89.60
2018-08-04T08:38:19.680Z,91.00
2018-08-04T08:40:49.102Z,92.40
2018-08-04T08:45:48.047Z,90.10
2018-08-04T08:48:17.509Z,90.80
2018-08-04T08:50:46.690Z,85.60
2018-08-04T08:53:16.047Z,83.20
2018-08-04T08:55:45.138Z,85.40
2018-08-04T08:58:14.255Z,90.40
2018-08-04T09:00:43.495Z,87.00
2018-08-04T09:03:12.907Z,84.30
2018-08-04T09:05:42.257Z,85.40
2018-08-04T09:08:12.469Z,83.50
2018-08-04T09:10:41.809Z,84.90
2018-08-04T09:13:11.245Z,85.20
2018-08-04T09:15:40.467Z,85.50
2018-08-04T09:18:09.627Z,84.40
2018-08-04T09:20:38.799Z,83.00
2018-08-04T09:23:08.050Z,85.40
2018-08-04T09:25:37.248Z,85.60
2018-08-04T09:28:06.592Z,83.90
2018-08-04T09:30:35.856Z,81.30
2018-08-04T09:33:05.376Z,79.70
2018-08-04T09:35:34.504Z,80.10
2018-08-04T09:38:03.746Z,81.60
2018-08-04T09:40:33.071Z,86.00
2018-08-04T09:43:02.215Z,90.10
2018-08-04T09:45:31.448Z,90.00
2018-08-04T09:48:00.564Z,91.40
2018-08-04T09:50:29.923Z,90.90
2018-08-04T09:52:59.170Z,88.70
2018-08-04T09:55:28.455Z,86.80
2018-08-04T09:57:57.854Z,84.10
2018-08-04T10:00:32.488Z,83.50
2018-08-04T10:03:01.874Z,86.40
2018-08-04T10:05:31.058Z,87.10
2018-08-04T10:08:00.233Z,86.70
2018-08-04T10:10:29.549Z,85.40
2018-08-04T10:12:58.889Z,89.30
2018-08-04T10:15:28.171Z,86.10
2018-08-04T10:17:57.498Z,83.30
2018-08-04T10:20:27.683Z,81.40
2018-08-04T10:22:56.876Z,86.10
2018-08-04T10:25:26.030Z,86.70
2018-08-04T10:27:55.347Z,90.70
2018-08-04T10:30:24.466Z,90.60
2018-08-04T10:32:54.014Z,91.10
2018-08-04T10:35:23.931Z,91.10
2018-08-04T10:37:53.171Z,91.60
2018-08-04T10:40:22.424Z,91.10
2018-08-04T10:42:52.352Z,91.50
2018-08-04T10:45:21.512Z,90.20
2018-08-04T10:47:50.719Z,90.00
2018-08-04T10:50:20.130Z,90.10
2018-08-04T10:52:49.354Z,91.30
2018-08-04T10:55:18.545Z,91.60
2018-08-04T10:57:47.757Z,91.80
2018-08-04T11:00:17.116Z,91.00
2018-08-04T11:02:47.192Z,92.30
2018-08-04T11:05:16.463Z,92.10
2018-08-04T11:07:45.862Z,89.90
2018-08-04T11:10:15.112Z,86.30
2018-08-04T11:12:44.455Z,86.90
2018-08-04T11:15:14.189Z,86.00
2018-08-04T11:17:43.400Z,85.40
2018-08-04T11:20:12.706Z,86.50
2018-08-04T11:22:42.003Z,86.70
2018-08-04T11:25:11.260Z,90.10
2018-08-04T11:27:40.467Z,90.60
2018-08-04T11:30:10.072Z,91.70
2018-08-04T11:32:39.317Z,91.60
2018-08-04T11:35:08.507Z,91.20
2018-08-04T11:37:37.779Z,90.50
2018-08-04T11:40:08.565Z,88.30
2018-08-04T11:42:38.727Z,86.00
2018-08-04T11:45:08.033Z,83.70
2018-08-04T11:47:37.180Z,86.00
2018-08-04T11:50:06.418Z,88.70
2018-08-04T11:52:35.722Z,88.90
2018-08-04T11:55:04.980Z,85.50
2018-08-04T11:57:34.344Z,86.10
2018-08-04T12:00:04.674Z,86.50
2018-08-04T12:02:33.968Z,87.80
2018-08-04T12:05:03.220Z,88.60
2018-08-04T12:07:32.600Z,86.30
2018-08-04T12:10:02.106Z,85.50
2018-08-04T12:12:31.335Z,87.90
2018-08-04T12:15:00.684Z,84.70
2018-08-04T12:17:30.036Z,88.20
2018-08-04T12:19:59.879Z,88.50
2018-08-04T12:22:29.096Z,87.30
2018-08-04T12:24:58.206Z,85.50
2018-08-04T12:27:28.348Z,82.40
2018-08-04T12:29:57.665Z,82.00
2018-08-04T12:32:27.065Z,80.60
2018-08-04T12:34:56.416Z,80.40
2018-08-04T12:37:25.795Z,83.30
2018-08-04T12:39:54.868Z,82.00
2018-08-04T12:42:24.180Z,84.00
2018-08-04T12:44:53.368Z,85.50
2018-08-04T12:47:22.833Z,85.50
2018-08-04T12:49:51.992Z,85.50
2018-08-04T12:52:21.676Z,85.90
2018-08-04T12:54:50.944Z,90.20
2018-08-04T12:57:20.235Z,90.40
2018-08-04T12:59:49.368Z,90.50
2018-08-04T13:02:18.760Z,87.90
2018-08-04T13:04:47.939Z,89.00
2018-08-04T13:07:17.458Z,87.10
2018-08-04T13:09:46.616Z,89.30
2018-08-04T13:12:15.752Z,87.30
2018-08-04T13:14:45.181Z,85.80
2018-08-04T13:17:14.324Z,86.50
2018-08-04T13:19:43.605Z,87.50
2018-08-04T13:24:41.426Z,85.60
2018-08-04T13:27:10.717Z,82.90
2018-08-04T13:29:39.919Z,83.60
2018-08-04T13:32:09.257Z,85.40
2018-08-04T13:34:38.393Z,87.30
2018-08-04T13:37:07.990Z,89.10
2018-08-04T13:39:37.208Z,88.50
2018-08-04T13:42:06.607Z,91.50
2018-08-04T13:44:35.782Z,92.70
2018-08-04T13:47:05.497Z,92.40
2018-08-04T13:49:34.850Z,91.20
2018-08-04T13:52:04.007Z,91.20
2018-08-04T13:54:33.314Z,90.90
2018-08-04T13:57:02.524Z,90.50
2018-08-04T13:59:31.623Z,90.60
2018-08-04T14:02:00.774Z,90.70
2018-08-04T14:04:30.029Z,90.60
2018-08-04T14:06:59.245Z,92.00
2018-08-04T14:09:28.417Z,92.80
2018-08-04T14:14:26.400Z,93.40
2018-08-04T14:19:24.425Z,93.40
2018-08-04T14:21:53.837Z,93.50
2018-08-04T14:24:22.974Z,94.00
2018-08-04T14:26:52.289Z,93.00
2018-08-04T14:29:22.123Z,93.20
2018-08-04T14:31:51.387Z,92.80
2018-08-04T14:34:20.647Z,92.50
2018-08-04T14:36:49.791Z,91.50
2018-08-04T14:41:47.976Z,91.70
2018-08-04T14:44:18.181Z,91.20
2018-08-04T14:46:47.403Z,90.90
2018-08-04T14:49:16.615Z,90.50
2018-08-04T14:51:45.826Z,87.90
2018-08-04T14:54:15.247Z,87.40
2018-08-04T14:56:44.613Z,90.70
2018-08-04T14:59:13.931Z,92.30
2018-08-04T15:01:43.066Z,93.00
2018-08-04T15:04:12.545Z,93.60
2018-08-04T15:06:41.704Z,94.40
2018-08-04T15:09:12.301Z,95.30
2018-08-04T15:11:41.579Z,95.70
2018-08-04T15:14:11.284Z,96.00
2018-08-04T15:16:40.379Z,96.80
2018-08-04T15:19:09.584Z,97.20
2018-08-04T15:21:38.848Z,97.60
2018-08-04T15:24:08.055Z,97.60
2018-08-04T15:26:37.199Z,96.80
2018-08-04T15:29:06.331Z,97.10
2018-08-04T15:31:35.507Z,97.50
2018-08-04T15:34:04.732Z,97.70
2018-08-04T15:36:33.844Z,97.80
2018-08-04T15:39:03.122Z,98.10
2018-08-04T15:41:34.918Z,97.10
2018-08-04T15:44:04.048Z,97.00
2018-08-04T15:46:34.018Z,97.50
2018-08-04T15:49:03.191Z,96.40
2018-08-04T15:51:32.359Z,97.30
2018-08-04T15:54:01.595Z,98.80
2018-08-04T15:56:30.784Z,99.00
2018-08-04T15:58:59.952Z,99.90
2018-08-04T16:01:29.281Z,99.90
2018-08-04T16:03:58.459Z,99.70
2018-08-04T16:06:27.570Z,99.80
2018-08-04T16:08:57.415Z,99.20
2018-08-04T16:11:26.756Z,99.70
2018-08-04T16:13:55.911Z,99.90
2018-08-04T16:16:25.025Z,99.90
2018-08-04T16:18:54.173Z,99.90
2018-08-04T16:21:23.300Z,99.90
2018-08-04T16:23:52.448Z,99.90
2018-08-04T16:26:21.605Z,99.70
2018-08-04T16:28:50.985Z,99.60
2018-08-04T16:31:20.286Z,99.90
2018-08-04T16:33:50.160Z,99.50
2018-08-04T16:36:19.445Z,99.90
2018-08-04T16:38:48.700Z,99.90
2018-08-04T16:41:18.049Z,99.90
2018-08-04T16:43:47.162Z,99.90
2018-08-04T16:46:16.287Z,99.90
2018-08-04T16:48:45.456Z,99.90
2018-08-04T16:51:14.662Z,99.90
2018-08-04T16:53:43.766Z,99.90
2018-08-04T16:56:12.984Z,99.90
2018-08-04T16:58:42.127Z,99.90
2018-08-04T17:01:11.379Z,99.90
2018-08-04T17:03:40.545Z,99.90
2018-08-04T17:06:10.628Z,99.90
2018-08-04T17:08:39.727Z,99.90
2018-08-04T17:11:08.917Z,99.90
2018-08-04T17:13:38.077Z,99.90
2018-08-04T17:16:07.294Z,99.90
2018-08-04T17:18:36.678Z,99.90
2018-08-04T17:21:05.996Z,99.90
2018-08-04T17:23:35.142Z,99.90
2018-08-04T17:26:04.568Z,99.90
2018-08-04T17:28:33.724Z,99.90
2018-08-04T17:31:03.305Z,99.90
2018-08-04T17:33:32.537Z,99.90
2018-08-04T17:36:01.805Z,99.90
2018-08-04T17:38:30.941Z,99.90
2018-08-04T17:41:07.464Z,99.90
2018-08-04T17:43:36.620Z,99.90
2018-08-04T17:46:05.829Z,99.90
2018-08-04T17:48:35.009Z,99.90
2018-08-04T17:51:04.260Z,99.90
2018-08-04T17:53:33.458Z,99.90
2018-08-04T17:56:02.696Z,99.90
2018-08-04T17:58:31.883Z,99.90
2018-08-04T18:01:01.085Z,99.90
2018-08-04T18:03:30.305Z,99.90
2018-08-04T18:05:59.497Z,99.90
2018-08-04T18:08:28.724Z,99.90
2018-08-04T18:10:57.959Z,99.90
2018-08-04T18:13:27.189Z,99.90
2018-08-04T18:15:57.323Z,99.90
2018-08-04T18:18:26.414Z,99.90
2018-08-04T18:20:55.521Z,99.90
2018-08-04T18:23:24.647Z,99.90
2018-08-04T18:25:53.766Z,99.90
2018-08-04T18:28:22.903Z,99.90
2018-08-04T18:30:52.166Z,99.90
2018-08-04T18:33:21.321Z,99.90
2018-08-04T18:35:50.574Z,99.90
2018-08-04T18:38:20.074Z,99.90
2018-08-04T18:40:49.293Z,99.90
2018-08-04T18:43:18.623Z,99.90
2018-08-04T18:45:47.813Z,99.90
2018-08-04T18:48:17.009Z,99.90
2018-08-04T18:50:46.293Z,99.90
2018-08-04T18:53:15.521Z,99.90
2018-08-04T18:55:44.710Z,99.90
2018-08-04T18:58:13.812Z,99.90
2018-08-04T19:00:43.012Z,99.90
2018-08-04T19:03:12.940Z,99.90
2018-08-04T19:05:42.928Z,99.90
2018-08-04T19:08:12.230Z,99.90
2018-08-04T19:10:41.364Z,99.90
2018-08-04T19:13:10.521Z,99.90
2018-08-04T19:15:39.712Z,99.90
2018-08-04T19:18:08.906Z,99.90
2018-08-04T19:20:38.178Z,99.90
2018-08-04T19:23:07.409Z,99.90
2018-08-04T19:25:36.656Z,99.90
2018-08-04T19:28:05.937Z,99.90
2018-08-04T19:30:35.228Z,99.90
2018-08-04T19:33:04.350Z,99.90
2018-08-04T19:35:33.567Z,99.90
2018-08-04T19:38:02.813Z,99.90
2018-08-04T19:43:00.815Z,99.90
2018-08-04T19:45:31.081Z,99.90
2018-08-04T19:48:00.374Z,99.90
2018-08-04T19:50:29.622Z,99.90
2018-08-04T19:52:58.873Z,99.90
2018-08-04T19:55:28.099Z,99.90
2018-08-04T19:57:57.283Z,99.90
2018-08-04T20:00:26.427Z,99.90
2018-08-04T20:02:55.663Z,99.90
2018-08-04T20:05:24.916Z,99.90
2018-08-04T20:07:54.075Z,99.90
2018-08-04T20:10:23.308Z,99.90
2018-08-04T20:12:52.628Z,99.90
2018-08-04T20:17:50.905Z,99.90
2018-08-04T20:20:20.362Z,99.90
2018-08-04T20:22:49.631Z,99.90
2018-08-04T20:25:19.340Z,99.90
2018-08-04T20:27:48.474Z,99.90
2018-08-04T20:30:17.781Z,99.90
2018-08-04T20:32:47.035Z,99.90
2018-08-04T20:35:16.607Z,99.90
2018-08-04T20:37:45.858Z,99.90
2018-08-04T20:40:15.026Z,99.90
2018-08-04T20:42:44.227Z,99.90
2018-08-04T20:45:13.551Z,99.90
2018-08-04T20:47:43.900Z,99.90
2018-08-04T20:50:13.424Z,99.90
2018-08-04T20:52:42.568Z,99.90
2018-08-04T20:55:11.870Z,99.90
2018-08-04T20:57:41.245Z,99.90
2018-08-04T21:00:10.805Z,99.90
2018-08-04T21:02:39.896Z,99.90
2018-08-04T21:05:09.095Z,99.90
2018-08-04T21:07:38.333Z,99.90
2018-08-04T21:10:07.577Z,99.90
2018-08-04T21:12:36.794Z,99.90
2018-08-04T21:15:06.141Z,99.90
2018-08-04T21:17:35.423Z,99.90
2018-08-04T21:20:04.976Z,99.90
2018-08-04T21:22:34.407Z,99.90
2018-08-04T21:25:03.635Z,99.90
2018-08-04T21:27:32.951Z,99.90
2018-08-04T21:30:02.081Z,99.90
2018-08-04T21:32:31.491Z,99.90
2018-08-04T21:35:01.346Z,99.90
2018-08-04T21:37:30.534Z,99.90
2018-08-04T21:39:59.659Z,99.90
2018-08-04T21:44:57.657Z,99.90
2018-08-04T21:47:27.109Z,99.90
2018-08-04T21:49:56.237Z,99.90
2018-08-04T21:52:25.616Z,99.90
2018-08-04T21:54:55.758Z,99.90
2018-08-04T21:57:25.072Z,99.90
2018-08-04T21:59:54.404Z,99.90
2018-08-04T22:02:23.604Z,99.90
2018-08-04T22:04:53.490Z,99.90
2018-08-04T22:07:44.233Z,99.90
2018-08-04T22:10:14.978Z,99.90
2018-08-04T22:12:45.696Z,99.90
2018-08-04T22:15:15.741Z,99.90
2018-08-04T22:17:44.987Z,99.90
2018-08-04T22:22:44.444Z,99.90
2018-08-04T22:25:15.071Z,99.90
2018-08-04T22:27:44.652Z,99.90
2018-08-04T22:30:15.007Z,99.90
2018-08-04T22:32:45.235Z,99.90
2018-08-04T22:35:14.527Z,99.90
2018-08-04T22:37:44.495Z,99.90
2018-08-04T22:40:14.993Z,99.90
2018-08-04T22:42:44.486Z,99.90
2018-08-04T22:46:15.714Z,99.90
2018-08-04T22:48:46.260Z,99.90
2018-08-04T22:51:23.311Z,99.90
2018-08-04T22:53:52.532Z,99.90
2018-08-04T22:58:50.809Z,99.90
2018-08-04T23:01:20.032Z,99.90
2018-08-04T23:03:49.254Z,99.90
2018-08-04T23:06:19.148Z,99.90
2018-08-04T23:08:48.487Z,99.90
2018-08-04T23:11:17.780Z,99.90
2018-08-04T23:13:47.136Z,99.90
2018-08-04T23:16:16.318Z,99.90
2018-08-04T23:18:45.542Z,99.90
2018-08-04T23:21:14.808Z,99.90
2018-08-04T23:23:44.046Z,99.90
2018-08-04T23:26:13.212Z,99.90
2018-08-04T23:28:42.374Z,99.90
2018-08-04T23:31:11.532Z,99.90
2018-08-04T23:36:09.748Z,99.90
2018-08-04T23:38:38.928Z,99.90
2018-08-04T23:41:09.420Z,99.90
2018-08-04T23:43:38.660Z,99.90
2018-08-04T23:46:07.817Z,99.90
2018-08-04T23:48:37.078Z,99.90
2018-08-04T23:51:06.251Z,99.90
2018-08-04T23:53:35.471Z,99.90
2018-08-04T23:56:04.612Z,99.90
2018-08-04T23:58:33.745Z,99.90
